sensor_id;sensor_type;location;lat;lon;timestamp;P1;durP1;ratioP1;P2;durP2;ratioP2
22298;SDS011;11317;51.072;17.036;2023-04-16T00:00:51;16.38;;;8.13;;
22298;SDS011;11317;51.072;17.036;2023-04-16T00:03:17;14.68;;;7.95;;
22298;SDS011;11317;51.072;17.036;2023-04-16T00:05:43;18.42;;;7.93;;
22298;SDS011;11317;51.072;17.036;2023-04-16T00:08:10;14.32;;;7.90;;
22298;SDS011;11317;51.072;17.036;2023-04-16T00:10:36;10.13;;;6.97;;
22298;SDS011;11317;51.072;17.036;2023-04-16T00:13:02;13.70;;;7.57;;
22298;SDS011;11317;51.072;17.036;2023-04-16T00:15:28;12.38;;;7.00;;
22298;SDS011;11317;51.072;17.036;2023-04-16T00:17:54;13.73;;;7.30;;
22298;SDS011;11317;51.072;17.036;2023-04-16T00:20:20;13.45;;;7.63;;
22298;SDS011;11317;51.072;17.036;2023-04-16T00:22:46;15.25;;;8.27;;
22298;SDS011;11317;51.072;17.036;2023-04-16T00:25:13;17.45;;;8.15;;
22298;SDS011;11317;51.072;17.036;2023-04-16T00:27:39;16.92;;;8.43;;
22298;SDS011;11317;51.072;17.036;2023-04-16T00:30:05;13.15;;;8.18;;
22298;SDS011;11317;51.072;17.036;2023-04-16T00:32:31;16.60;;;9.25;;
22298;SDS011;11317;51.072;17.036;2023-04-16T00:34:58;19.00;;;10.63;;
22298;SDS011;11317;51.072;17.036;2023-04-16T00:37:24;21.25;;;10.85;;
22298;SDS011;11317;51.072;17.036;2023-04-16T00:39:50;22.65;;;11.07;;
22298;SDS011;11317;51.072;17.036;2023-04-16T00:42:16;21.38;;;11.05;;
22298;SDS011;11317;51.072;17.036;2023-04-16T00:44:42;23.20;;;11.63;;
22298;SDS011;11317;51.072;17.036;2023-04-16T00:47:08;26.15;;;12.30;;
22298;SDS011;11317;51.072;17.036;2023-04-16T00:49:35;26.80;;;13.10;;
22298;SDS011;11317;51.072;17.036;2023-04-16T00:52:01;23.00;;;12.43;;
22298;SDS011;11317;51.072;17.036;2023-04-16T00:54:27;21.52;;;12.40;;
22298;SDS011;11317;51.072;17.036;2023-04-16T00:56:54;21.58;;;11.48;;
22298;SDS011;11317;51.072;17.036;2023-04-16T00:59:22;24.63;;;12.00;;
22298;SDS011;11317;51.072;17.036;2023-04-16T01:01:48;22.30;;;11.73;;
22298;SDS011;11317;51.072;17.036;2023-04-16T01:04:14;23.98;;;11.85;;
22298;SDS011;11317;51.072;17.036;2023-04-16T01:06:40;25.60;;;12.73;;
22298;SDS011;11317;51.072;17.036;2023-04-16T01:09:06;19.88;;;11.45;;
22298;SDS011;11317;51.072;17.036;2023-04-16T01:11:33;20.10;;;12.10;;
22298;SDS011;11317;51.072;17.036;2023-04-16T01:14:01;23.75;;;11.98;;
22298;SDS011;11317;51.072;17.036;2023-04-16T01:16:27;20.23;;;11.02;;
22298;SDS011;11317;51.072;17.036;2023-04-16T01:18:53;19.48;;;10.52;;
22298;SDS011;11317;51.072;17.036;2023-04-16T01:21:19;23.30;;;12.80;;
22298;SDS011;11317;51.072;17.036;2023-04-16T01:23:45;24.83;;;12.77;;
22298;SDS011;11317;51.072;17.036;2023-04-16T01:26:11;23.27;;;12.50;;
22298;SDS011;11317;51.072;17.036;2023-04-16T01:28:38;25.00;;;12.68;;
22298;SDS011;11317;51.072;17.036;2023-04-16T01:31:04;21.33;;;12.07;;
22298;SDS011;11317;51.072;17.036;2023-04-16T01:33:30;22.60;;;12.02;;
22298;SDS011;11317;51.072;17.036;2023-04-16T01:35:56;19.17;;;12.00;;
22298;SDS011;11317;51.072;17.036;2023-04-16T01:38:22;21.20;;;10.73;;
22298;SDS011;11317;51.072;17.036;2023-04-16T01:40:48;23.42;;;12.27;;
22298;SDS011;11317;51.072;17.036;2023-04-16T01:43:14;19.38;;;10.93;;
22298;SDS011;11317;51.072;17.036;2023-04-16T01:45:41;20.00;;;10.85;;
22298;SDS011;11317;51.072;17.036;2023-04-16T01:48:07;22.88;;;10.40;;
22298;SDS011;11317;51.072;17.036;2023-04-16T01:50:33;18.60;;;11.48;;
22298;SDS011;11317;51.072;17.036;2023-04-16T01:53:00;21.58;;;10.77;;
22298;SDS011;11317;51.072;17.036;2023-04-16T01:55:29;24.00;;;11.25;;
22298;SDS011;11317;51.072;17.036;2023-04-16T01:57:55;21.55;;;10.30;;
22298;SDS011;11317;51.072;17.036;2023-04-16T02:00:21;19.20;;;10.52;;
22298;SDS011;11317;51.072;17.036;2023-04-16T02:02:47;19.90;;;10.55;;
22298;SDS011;11317;51.072;17.036;2023-04-16T02:05:13;24.42;;;11.48;;
22298;SDS011;11317;51.072;17.036;2023-04-16T02:07:39;22.63;;;10.65;;
22298;SDS011;11317;51.072;17.036;2023-04-16T02:10:06;21.55;;;11.15;;
22298;SDS011;11317;51.072;17.036;2023-04-16T02:12:34;25.92;;;12.85;;
22298;SDS011;11317;51.072;17.036;2023-04-16T02:15:01;18.27;;;10.55;;
22298;SDS011;11317;51.072;17.036;2023-04-16T02:17:27;20.73;;;10.70;;
22298;SDS011;11317;51.072;17.036;2023-04-16T02:19:53;23.38;;;12.35;;
22298;SDS011;11317;51.072;17.036;2023-04-16T02:22:19;21.77;;;12.20;;
22298;SDS011;11317;51.072;17.036;2023-04-16T02:24:46;19.55;;;11.63;;
22298;SDS011;11317;51.072;17.036;2023-04-16T02:27:12;22.95;;;11.65;;
22298;SDS011;11317;51.072;17.036;2023-04-16T02:29:38;27.52;;;12.57;;
22298;SDS011;11317;51.072;17.036;2023-04-16T02:32:04;20.30;;;11.50;;
22298;SDS011;11317;51.072;17.036;2023-04-16T02:34:30;25.42;;;12.95;;
22298;SDS011;11317;51.072;17.036;2023-04-16T02:36:58;27.17;;;13.63;;
22298;SDS011;11317;51.072;17.036;2023-04-16T02:39:24;27.77;;;12.95;;
22298;SDS011;11317;51.072;17.036;2023-04-16T02:41:51;24.85;;;12.40;;
22298;SDS011;11317;51.072;17.036;2023-04-16T02:44:17;22.92;;;13.18;;
22298;SDS011;11317;51.072;17.036;2023-04-16T02:46:43;25.27;;;13.77;;
22298;SDS011;11317;51.072;17.036;2023-04-16T02:49:10;29.25;;;13.65;;
22298;SDS011;11317;51.072;17.036;2023-04-16T02:51:36;27.75;;;15.43;;
22298;SDS011;11317;51.072;17.036;2023-04-16T02:54:02;27.25;;;13.50;;
22298;SDS011;11317;51.072;17.036;2023-04-16T02:56:28;32.92;;;14.75;;
22298;SDS011;11317;51.072;17.036;2023-04-16T02:58:54;25.33;;;14.30;;
22298;SDS011;11317;51.072;17.036;2023-04-16T03:01:21;28.08;;;13.73;;
22298;SDS011;11317;51.072;17.036;2023-04-16T03:03:47;26.58;;;14.48;;
22298;SDS011;11317;51.072;17.036;2023-04-16T03:06:13;25.52;;;12.88;;
22298;SDS011;11317;51.072;17.036;2023-04-16T03:08:39;22.85;;;13.25;;
22298;SDS011;11317;51.072;17.036;2023-04-16T03:11:05;28.38;;;13.40;;
22298;SDS011;11317;51.072;17.036;2023-04-16T03:13:31;27.38;;;13.23;;
22298;SDS011;11317;51.072;17.036;2023-04-16T03:15:57;26.30;;;13.40;;
22298;SDS011;11317;51.072;17.036;2023-04-16T03:18:26;28.85;;;14.20;;
22298;SDS011;11317;51.072;17.036;2023-04-16T03:20:52;26.67;;;13.65;;
22298;SDS011;11317;51.072;17.036;2023-04-16T03:23:19;33.00;;;16.50;;
22298;SDS011;11317;51.072;17.036;2023-04-16T03:25:45;40.22;;;19.35;;
22298;SDS011;11317;51.072;17.036;2023-04-16T03:28:12;36.97;;;20.83;;
22298;SDS011;11317;51.072;17.036;2023-04-16T03:30:39;35.28;;;18.27;;
22298;SDS011;11317;51.072;17.036;2023-04-16T03:33:05;31.02;;;18.27;;
22298;SDS011;11317;51.072;17.036;2023-04-16T03:35:31;37.95;;;19.27;;
22298;SDS011;11317;51.072;17.036;2023-04-16T03:37:57;34.33;;;16.65;;
22298;SDS011;11317;51.072;17.036;2023-04-16T03:40:23;38.80;;;18.48;;
22298;SDS011;11317;51.072;17.036;2023-04-16T03:42:50;32.95;;;16.40;;
22298;SDS011;11317;51.072;17.036;2023-04-16T03:45:16;28.33;;;16.25;;
22298;SDS011;11317;51.072;17.036;2023-04-16T03:47:42;30.63;;;15.55;;
22298;SDS011;11317;51.072;17.036;2023-04-16T03:50:08;29.23;;;15.13;;
22298;SDS011;11317;51.072;17.036;2023-04-16T03:52:35;27.40;;;14.23;;
22298;SDS011;11317;51.072;17.036;2023-04-16T03:55:01;26.33;;;14.82;;
22298;SDS011;11317;51.072;17.036;2023-04-16T03:57:28;31.10;;;15.55;;
22298;SDS011;11317;51.072;17.036;2023-04-16T03:59:54;32.17;;;15.23;;
22298;SDS011;11317;51.072;17.036;2023-04-16T04:02:20;27.48;;;15.05;;
22298;SDS011;11317;51.072;17.036;2023-04-16T04:04:46;29.73;;;15.75;;
22298;SDS011;11317;51.072;17.036;2023-04-16T04:07:12;30.40;;;15.68;;
22298;SDS011;11317;51.072;17.036;2023-04-16T04:09:40;34.40;;;16.38;;
22298;SDS011;11317;51.072;17.036;2023-04-16T04:12:06;28.80;;;15.88;;
22298;SDS011;11317;51.072;17.036;2023-04-16T04:14:34;26.05;;;15.50;;
22298;SDS011;11317;51.072;17.036;2023-04-16T04:17:04;30.20;;;14.93;;
22298;SDS011;11317;51.072;17.036;2023-04-16T04:19:30;26.10;;;14.43;;
22298;SDS011;11317;51.072;17.036;2023-04-16T04:21:56;26.02;;;13.75;;
22298;SDS011;11317;51.072;17.036;2023-04-16T04:24:23;29.27;;;14.00;;
22298;SDS011;11317;51.072;17.036;2023-04-16T04:26:49;27.15;;;13.98;;
22298;SDS011;11317;51.072;17.036;2023-04-16T04:29:15;27.75;;;14.60;;
22298;SDS011;11317;51.072;17.036;2023-04-16T04:31:41;26.98;;;14.23;;
22298;SDS011;11317;51.072;17.036;2023-04-16T04:34:07;28.02;;;13.88;;
22298;SDS011;11317;51.072;17.036;2023-04-16T04:36:33;29.60;;;13.63;;
22298;SDS011;11317;51.072;17.036;2023-04-16T04:39:00;26.67;;;14.15;;
22298;SDS011;11317;51.072;17.036;2023-04-16T04:41:26;25.73;;;14.10;;
22298;SDS011;11317;51.072;17.036;2023-04-16T04:43:52;27.30;;;14.50;;
22298;SDS011;11317;51.072;17.036;2023-04-16T04:46:18;34.22;;;15.23;;
22298;SDS011;11317;51.072;17.036;2023-04-16T04:48:44;31.27;;;17.20;;
22298;SDS011;11317;51.072;17.036;2023-04-16T04:51:10;30.95;;;16.00;;
22298;SDS011;11317;51.072;17.036;2023-04-16T04:53:36;28.52;;;14.27;;
22298;SDS011;11317;51.072;17.036;2023-04-16T04:56:03;24.63;;;14.40;;
22298;SDS011;11317;51.072;17.036;2023-04-16T04:58:29;32.30;;;15.38;;
22298;SDS011;11317;51.072;17.036;2023-04-16T05:00:55;28.20;;;15.20;;
22298;SDS011;11317;51.072;17.036;2023-04-16T05:03:21;29.02;;;14.68;;
22298;SDS011;11317;51.072;17.036;2023-04-16T05:05:47;28.92;;;14.13;;
22298;SDS011;11317;51.072;17.036;2023-04-16T05:08:13;27.58;;;14.85;;
22298;SDS011;11317;51.072;17.036;2023-04-16T05:10:40;27.40;;;15.38;;
22298;SDS011;11317;51.072;17.036;2023-04-16T05:13:06;24.13;;;13.68;;
22298;SDS011;11317;51.072;17.036;2023-04-16T05:15:32;34.15;;;15.25;;
22298;SDS011;11317;51.072;17.036;2023-04-16T05:17:58;26.67;;;14.77;;
22298;SDS011;11317;51.072;17.036;2023-04-16T05:20:24;31.48;;;14.52;;
22298;SDS011;11317;51.072;17.036;2023-04-16T05:22:50;26.55;;;13.32;;
22298;SDS011;11317;51.072;17.036;2023-04-16T05:25:17;28.80;;;13.90;;
22298;SDS011;11317;51.072;17.036;2023-04-16T05:27:43;33.15;;;14.95;;
22298;SDS011;11317;51.072;17.036;2023-04-16T05:30:09;23.42;;;14.38;;
22298;SDS011;11317;51.072;17.036;2023-04-16T05:32:37;26.67;;;14.02;;
22298;SDS011;11317;51.072;17.036;2023-04-16T05:35:05;29.25;;;14.68;;
22298;SDS011;11317;51.072;17.036;2023-04-16T05:37:31;30.77;;;15.63;;
22298;SDS011;11317;51.072;17.036;2023-04-16T05:39:57;26.73;;;13.90;;
22298;SDS011;11317;51.072;17.036;2023-04-16T05:42:23;33.75;;;15.68;;
22298;SDS011;11317;51.072;17.036;2023-04-16T05:44:50;27.65;;;14.52;;
22298;SDS011;11317;51.072;17.036;2023-04-16T05:47:16;31.00;;;13.75;;
22298;SDS011;11317;51.072;17.036;2023-04-16T05:49:43;26.83;;;13.32;;
22298;SDS011;11317;51.072;17.036;2023-04-16T05:52:09;28.70;;;14.30;;
22298;SDS011;11317;51.072;17.036;2023-04-16T05:54:35;31.40;;;14.65;;
22298;SDS011;11317;51.072;17.036;2023-04-16T05:57:01;29.67;;;13.60;;
22298;SDS011;11317;51.072;17.036;2023-04-16T05:59:27;28.85;;;13.43;;
22298;SDS011;11317;51.072;17.036;2023-04-16T06:01:55;28.25;;;14.32;;
22298;SDS011;11317;51.072;17.036;2023-04-16T06:04:21;29.35;;;13.43;;
22298;SDS011;11317;51.072;17.036;2023-04-16T06:06:47;29.38;;;14.45;;
22298;SDS011;11317;51.072;17.036;2023-04-16T06:09:14;30.40;;;15.00;;
22298;SDS011;11317;51.072;17.036;2023-04-16T06:11:40;28.50;;;14.13;;
22298;SDS011;11317;51.072;17.036;2023-04-16T06:14:06;38.17;;;14.85;;
22298;SDS011;11317;51.072;17.036;2023-04-16T06:16:32;31.50;;;14.52;;
22298;SDS011;11317;51.072;17.036;2023-04-16T06:18:58;27.58;;;13.43;;
22298;SDS011;11317;51.072;17.036;2023-04-16T06:21:24;27.73;;;15.48;;
22298;SDS011;11317;51.072;17.036;2023-04-16T06:23:51;29.30;;;14.50;;
22298;SDS011;11317;51.072;17.036;2023-04-16T06:26:17;32.10;;;15.00;;
22298;SDS011;11317;51.072;17.036;2023-04-16T06:28:43;28.35;;;13.63;;
22298;SDS011;11317;51.072;17.036;2023-04-16T06:31:09;27.75;;;14.27;;
22298;SDS011;11317;51.072;17.036;2023-04-16T06:33:35;32.60;;;14.02;;
22298;SDS011;11317;51.072;17.036;2023-04-16T06:36:02;27.30;;;14.02;;
22298;SDS011;11317;51.072;17.036;2023-04-16T06:38:28;28.25;;;15.00;;
22298;SDS011;11317;51.072;17.036;2023-04-16T06:40:54;28.05;;;14.18;;
22298;SDS011;11317;51.072;17.036;2023-04-16T06:43:20;24.52;;;12.85;;
22298;SDS011;11317;51.072;17.036;2023-04-16T06:45:46;25.83;;;13.80;;
22298;SDS011;11317;51.072;17.036;2023-04-16T06:48:13;27.42;;;14.38;;
22298;SDS011;11317;51.072;17.036;2023-04-16T06:50:39;27.40;;;13.63;;
22298;SDS011;11317;51.072;17.036;2023-04-16T06:53:06;28.02;;;14.02;;
22298;SDS011;11317;51.072;17.036;2023-04-16T06:55:32;28.52;;;14.52;;
22298;SDS011;11317;51.072;17.036;2023-04-16T06:57:58;25.77;;;13.90;;
22298;SDS011;11317;51.072;17.036;2023-04-16T07:00:24;32.33;;;14.57;;
22298;SDS011;11317;51.072;17.036;2023-04-16T07:02:50;26.83;;;13.60;;
22298;SDS011;11317;51.072;17.036;2023-04-16T07:05:16;25.55;;;13.88;;
22298;SDS011;11317;51.072;17.036;2023-04-16T07:07:42;28.60;;;13.80;;
22298;SDS011;11317;51.072;17.036;2023-04-16T07:10:08;24.83;;;13.70;;
22298;SDS011;11317;51.072;17.036;2023-04-16T07:12:34;21.63;;;12.52;;
22298;SDS011;11317;51.072;17.036;2023-04-16T07:15:00;19.80;;;11.93;;
22298;SDS011;11317;51.072;17.036;2023-04-16T07:17:26;20.23;;;12.75;;
22298;SDS011;11317;51.072;17.036;2023-04-16T07:19:52;20.67;;;11.90;;
22298;SDS011;11317;51.072;17.036;2023-04-16T07:22:18;20.70;;;11.50;;
22298;SDS011;11317;51.072;17.036;2023-04-16T07:24:45;20.45;;;12.27;;
22298;SDS011;11317;51.072;17.036;2023-04-16T07:27:10;18.52;;;11.10;;
22298;SDS011;11317;51.072;17.036;2023-04-16T07:29:37;20.23;;;12.27;;
22298;SDS011;11317;51.072;17.036;2023-04-16T07:32:03;21.52;;;12.57;;
22298;SDS011;11317;51.072;17.036;2023-04-16T07:34:29;18.90;;;11.60;;
22298;SDS011;11317;51.072;17.036;2023-04-16T07:36:55;18.30;;;12.45;;
22298;SDS011;11317;51.072;17.036;2023-04-16T07:39:21;18.60;;;11.82;;
22298;SDS011;11317;51.072;17.036;2023-04-16T07:41:47;22.13;;;12.32;;
22298;SDS011;11317;51.072;17.036;2023-04-16T07:44:13;20.27;;;11.60;;
22298;SDS011;11317;51.072;17.036;2023-04-16T07:46:40;21.48;;;12.05;;
22298;SDS011;11317;51.072;17.036;2023-04-16T07:49:06;20.63;;;12.52;;
22298;SDS011;11317;51.072;17.036;2023-04-16T07:51:32;18.30;;;11.98;;
22298;SDS011;11317;51.072;17.036;2023-04-16T07:53:58;21.98;;;11.93;;
22298;SDS011;11317;51.072;17.036;2023-04-16T07:56:24;20.52;;;12.85;;
22298;SDS011;11317;51.072;17.036;2023-04-16T07:58:50;17.63;;;11.55;;
22298;SDS011;11317;51.072;17.036;2023-04-16T08:01:16;17.98;;;11.00;;
22298;SDS011;11317;51.072;17.036;2023-04-16T08:03:42;16.52;;;10.98;;
22298;SDS011;11317;51.072;17.036;2023-04-16T08:06:08;22.70;;;12.38;;
22298;SDS011;11317;51.072;17.036;2023-04-16T08:08:34;21.00;;;12.30;;
22298;SDS011;11317;51.072;17.036;2023-04-16T08:11:00;20.67;;;11.88;;
22298;SDS011;11317;51.072;17.036;2023-04-16T08:13:26;21.55;;;12.38;;
22298;SDS011;11317;51.072;17.036;2023-04-16T08:15:52;17.67;;;10.98;;
22298;SDS011;11317;51.072;17.036;2023-04-16T08:18:18;18.25;;;12.02;;
22298;SDS011;11317;51.072;17.036;2023-04-16T08:20:44;18.02;;;11.45;;
22298;SDS011;11317;51.072;17.036;2023-04-16T08:23:10;18.95;;;11.52;;
22298;SDS011;11317;51.072;17.036;2023-04-16T08:25:36;16.13;;;11.20;;
22298;SDS011;11317;51.072;17.036;2023-04-16T08:28:03;16.80;;;10.98;;
22298;SDS011;11317;51.072;17.036;2023-04-16T08:30:29;16.45;;;10.85;;
22298;SDS011;11317;51.072;17.036;2023-04-16T08:32:55;17.80;;;10.13;;
22298;SDS011;11317;51.072;17.036;2023-04-16T08:35:21;17.40;;;10.75;;
22298;SDS011;11317;51.072;17.036;2023-04-16T08:37:47;15.90;;;9.82;;
22298;SDS011;11317;51.072;17.036;2023-04-16T08:40:13;16.30;;;9.88;;
22298;SDS011;11317;51.072;17.036;2023-04-16T08:42:44;16.38;;;10.30;;
22298;SDS011;11317;51.072;17.036;2023-04-16T08:45:16;18.65;;;9.80;;
22298;SDS011;11317;51.072;17.036;2023-04-16T08:47:44;12.23;;;7.60;;
22298;SDS011;11317;51.072;17.036;2023-04-16T08:50:13;13.98;;;8.35;;
22298;SDS011;11317;51.072;17.036;2023-04-16T08:52:50;10.88;;;7.07;;
22298;SDS011;11317;51.072;17.036;2023-04-16T08:55:23;9.90;;;5.93;;
22298;SDS011;11317;51.072;17.036;2023-04-16T08:57:58;8.98;;;5.43;;
22298;SDS011;11317;51.072;17.036;2023-04-16T09:00:25;8.48;;;5.47;;
22298;SDS011;11317;51.072;17.036;2023-04-16T09:02:51;7.22;;;4.85;;
22298;SDS011;11317;51.072;17.036;2023-04-16T09:05:18;7.95;;;4.45;;
22298;SDS011;11317;51.072;17.036;2023-04-16T09:07:49;6.78;;;4.82;;
22298;SDS011;11317;51.072;17.036;2023-04-16T09:10:16;6.65;;;4.30;;
22298;SDS011;11317;51.072;17.036;2023-04-16T09:12:44;8.23;;;4.80;;
22298;SDS011;11317;51.072;17.036;2023-04-16T09:15:10;5.97;;;4.45;;
22298;SDS011;11317;51.072;17.036;2023-04-16T09:17:38;10.30;;;5.15;;
22298;SDS011;11317;51.072;17.036;2023-04-16T09:20:05;7.57;;;5.35;;
22298;SDS011;11317;51.072;17.036;2023-04-16T09:22:35;6.65;;;4.68;;
22298;SDS011;11317;51.072;17.036;2023-04-16T09:25:02;6.38;;;4.72;;
22298;SDS011;11317;51.072;17.036;2023-04-16T09:27:28;6.72;;;4.05;;
22298;SDS011;11317;51.072;17.036;2023-04-16T09:29:55;7.10;;;3.65;;
22298;SDS011;11317;51.072;17.036;2023-04-16T09:32:25;4.70;;;3.15;;
22298;SDS011;11317;51.072;17.036;2023-04-16T09:34:59;5.55;;;3.60;;
22298;SDS011;11317;51.072;17.036;2023-04-16T09:37:26;9.60;;;5.00;;
22298;SDS011;11317;51.072;17.036;2023-04-16T09:39:56;6.72;;;4.53;;
22298;SDS011;11317;51.072;17.036;2023-04-16T09:42:32;5.40;;;4.00;;
22298;SDS011;11317;51.072;17.036;2023-04-16T09:44:59;6.35;;;4.13;;
22298;SDS011;11317;51.072;17.036;2023-04-16T09:47:30;5.90;;;3.60;;
22298;SDS011;11317;51.072;17.036;2023-04-16T09:50:07;4.53;;;3.03;;
22298;SDS011;11317;51.072;17.036;2023-04-16T09:52:36;5.25;;;3.17;;
22298;SDS011;11317;51.072;17.036;2023-04-16T09:55:02;4.90;;;2.78;;
22298;SDS011;11317;51.072;17.036;2023-04-16T09:57:29;4.85;;;3.15;;
22298;SDS011;11317;51.072;17.036;2023-04-16T10:00:04;4.47;;;2.70;;
22298;SDS011;11317;51.072;17.036;2023-04-16T10:02:31;5.20;;;3.25;;
22298;SDS011;11317;51.072;17.036;2023-04-16T10:04:59;5.65;;;3.50;;
22298;SDS011;11317;51.072;17.036;2023-04-16T10:07:32;4.82;;;3.30;;
22298;SDS011;11317;51.072;17.036;2023-04-16T10:09:59;5.43;;;3.28;;
22298;SDS011;11317;51.072;17.036;2023-04-16T10:12:25;6.70;;;3.55;;
22298;SDS011;11317;51.072;17.036;2023-04-16T10:14:52;5.22;;;3.65;;
22298;SDS011;11317;51.072;17.036;2023-04-16T10:17:19;5.70;;;3.80;;
22298;SDS011;11317;51.072;17.036;2023-04-16T10:19:45;4.93;;;3.20;;
22298;SDS011;11317;51.072;17.036;2023-04-16T10:22:12;5.18;;;2.92;;
22298;SDS011;11317;51.072;17.036;2023-04-16T10:24:38;3.80;;;2.80;;
22298;SDS011;11317;51.072;17.036;2023-04-16T10:27:06;4.57;;;2.80;;
22298;SDS011;11317;51.072;17.036;2023-04-16T10:29:31;5.90;;;3.47;;
22298;SDS011;11317;51.072;17.036;2023-04-16T10:31:58;6.25;;;3.53;;
22298;SDS011;11317;51.072;17.036;2023-04-16T10:34:25;7.20;;;4.25;;
22298;SDS011;11317;51.072;17.036;2023-04-16T10:36:53;6.50;;;4.00;;
22298;SDS011;11317;51.072;17.036;2023-04-16T10:39:20;7.55;;;4.05;;
22298;SDS011;11317;51.072;17.036;2023-04-16T10:41:47;8.88;;;4.22;;
22298;SDS011;11317;51.072;17.036;2023-04-16T10:44:16;6.25;;;3.35;;
22298;SDS011;11317;51.072;17.036;2023-04-16T10:46:44;4.82;;;2.70;;
22298;SDS011;11317;51.072;17.036;2023-04-16T10:51:55;4.20;;;3.03;;
22298;SDS011;11317;51.072;17.036;2023-04-16T10:54:26;3.60;;;2.15;;
22298;SDS011;11317;51.072;17.036;2023-04-16T10:56:54;4.55;;;2.30;;
22298;SDS011;11317;51.072;17.036;2023-04-16T10:59:22;1.85;;;1.60;;
22298;SDS011;11317;51.072;17.036;2023-04-16T11:01:55;4.85;;;1.73;;
22298;SDS011;11317;51.072;17.036;2023-04-16T11:09:56;1.77;;;1.48;;
22298;SDS011;11317;51.072;17.036;2023-04-16T11:17:38;2.70;;;1.42;;
22298;SDS011;11317;51.072;17.036;2023-04-16T11:20:05;1.95;;;1.55;;
22298;SDS011;11317;51.072;17.036;2023-04-16T11:22:33;3.22;;;1.48;;
22298;SDS011;11317;51.072;17.036;2023-04-16T11:25:00;2.65;;;1.30;;
22298;SDS011;11317;51.072;17.036;2023-04-16T11:27:28;2.90;;;1.65;;
22298;SDS011;11317;51.072;17.036;2023-04-16T11:29:58;1.60;;;1.20;;
22298;SDS011;11317;51.072;17.036;2023-04-16T11:32:26;2.83;;;1.08;;
22298;SDS011;11317;51.072;17.036;2023-04-16T11:34:52;2.47;;;0.88;;
22298;SDS011;11317;51.072;17.036;2023-04-16T11:37:19;1.35;;;1.05;;
22298;SDS011;11317;51.072;17.036;2023-04-16T11:39:52;1.88;;;1.15;;
22298;SDS011;11317;51.072;17.036;2023-04-16T11:42:21;1.35;;;1.23;;
22298;SDS011;11317;51.072;17.036;2023-04-16T11:44:54;3.95;;;1.30;;
22298;SDS011;11317;51.072;17.036;2023-04-16T11:47:21;2.55;;;1.10;;
22298;SDS011;11317;51.072;17.036;2023-04-16T11:49:47;1.60;;;1.20;;
22298;SDS011;11317;51.072;17.036;2023-04-16T11:52:23;2.42;;;1.40;;
22298;SDS011;11317;51.072;17.036;2023-04-16T11:54:51;1.27;;;1.17;;
22298;SDS011;11317;51.072;17.036;2023-04-16T11:57:50;1.48;;;1.27;;
22298;SDS011;11317;51.072;17.036;2023-04-16T12:00:10;2.00;;;1.30;;
22298;SDS011;11317;51.072;17.036;2023-04-16T12:05:24;6.95;;;1.38;;
22298;SDS011;11317;51.072;17.036;2023-04-16T12:07:55;2.38;;;1.45;;
22298;SDS011;11317;51.072;17.036;2023-04-16T12:10:22;1.63;;;1.23;;
22298;SDS011;11317;51.072;17.036;2023-04-16T12:12:48;1.77;;;1.15;;
22298;SDS011;11317;51.072;17.036;2023-04-16T12:15:14;3.38;;;1.00;;
22298;SDS011;11317;51.072;17.036;2023-04-16T12:17:40;2.33;;;1.10;;
22298;SDS011;11317;51.072;17.036;2023-04-16T12:20:07;2.47;;;1.33;;
22298;SDS011;11317;51.072;17.036;2023-04-16T12:22:35;2.65;;;1.40;;
22298;SDS011;11317;51.072;17.036;2023-04-16T12:25:02;1.88;;;1.35;;
22298;SDS011;11317;51.072;17.036;2023-04-16T12:30:15;2.75;;;1.50;;
22298;SDS011;11317;51.072;17.036;2023-04-16T12:32:42;2.35;;;1.80;;
22298;SDS011;11317;51.072;17.036;2023-04-16T12:35:11;2.97;;;2.15;;
22298;SDS011;11317;51.072;17.036;2023-04-16T12:37:38;3.35;;;1.90;;
22298;SDS011;11317;51.072;17.036;2023-04-16T12:40:04;2.88;;;2.17;;
22298;SDS011;11317;51.072;17.036;2023-04-16T12:42:31;3.30;;;1.83;;
22298;SDS011;11317;51.072;17.036;2023-04-16T12:45:01;1.95;;;1.45;;
22298;SDS011;11317;51.072;17.036;2023-04-16T12:47:28;2.88;;;1.85;;
22298;SDS011;11317;51.072;17.036;2023-04-16T12:49:55;2.85;;;1.80;;
22298;SDS011;11317;51.072;17.036;2023-04-16T12:52:21;3.95;;;2.10;;
22298;SDS011;11317;51.072;17.036;2023-04-16T12:54:48;6.70;;;2.00;;
22298;SDS011;11317;51.072;17.036;2023-04-16T12:57:13;2.45;;;1.65;;
22298;SDS011;11317;51.072;17.036;2023-04-16T12:59:40;2.58;;;1.50;;
22298;SDS011;11317;51.072;17.036;2023-04-16T13:02:06;1.75;;;1.33;;
22298;SDS011;11317;51.072;17.036;2023-04-16T13:04:32;2.75;;;1.48;;
22298;SDS011;11317;51.072;17.036;2023-04-16T13:06:59;1.70;;;1.58;;
22298;SDS011;11317;51.072;17.036;2023-04-16T13:09:25;2.17;;;1.50;;
22298;SDS011;11317;51.072;17.036;2023-04-16T13:11:51;3.35;;;1.88;;
22298;SDS011;11317;51.072;17.036;2023-04-16T13:14:18;2.75;;;1.80;;
22298;SDS011;11317;51.072;17.036;2023-04-16T13:16:44;3.17;;;1.67;;
22298;SDS011;11317;51.072;17.036;2023-04-16T13:19:10;2.95;;;1.70;;
22298;SDS011;11317;51.072;17.036;2023-04-16T13:21:36;3.58;;;1.98;;
22298;SDS011;11317;51.072;17.036;2023-04-16T13:24:03;3.13;;;2.28;;
22298;SDS011;11317;51.072;17.036;2023-04-16T13:26:29;2.28;;;1.88;;
22298;SDS011;11317;51.072;17.036;2023-04-16T13:28:55;2.58;;;2.08;;
22298;SDS011;11317;51.072;17.036;2023-04-16T13:31:22;4.00;;;2.03;;
22298;SDS011;11317;51.072;17.036;2023-04-16T13:33:48;3.25;;;2.00;;
22298;SDS011;11317;51.072;17.036;2023-04-16T13:36:15;3.60;;;2.10;;
22298;SDS011;11317;51.072;17.036;2023-04-16T13:38:41;2.63;;;1.95;;
22298;SDS011;11317;51.072;17.036;2023-04-16T13:41:07;3.13;;;2.03;;
22298;SDS011;11317;51.072;17.036;2023-04-16T13:43:33;2.75;;;2.35;;
22298;SDS011;11317;51.072;17.036;2023-04-16T13:45:59;3.13;;;2.10;;
22298;SDS011;11317;51.072;17.036;2023-04-16T13:48:25;2.42;;;2.15;;
22298;SDS011;11317;51.072;17.036;2023-04-16T13:50:52;3.67;;;1.80;;
22298;SDS011;11317;51.072;17.036;2023-04-16T13:53:18;4.07;;;2.78;;
22298;SDS011;11317;51.072;17.036;2023-04-16T13:55:44;3.47;;;2.25;;
22298;SDS011;11317;51.072;17.036;2023-04-16T13:58:10;3.55;;;2.03;;
22298;SDS011;11317;51.072;17.036;2023-04-16T14:00:36;3.42;;;2.00;;
22298;SDS011;11317;51.072;17.036;2023-04-16T14:03:03;2.60;;;2.22;;
22298;SDS011;11317;51.072;17.036;2023-04-16T14:05:30;3.58;;;2.28;;
22298;SDS011;11317;51.072;17.036;2023-04-16T14:07:57;2.80;;;2.25;;
22298;SDS011;11317;51.072;17.036;2023-04-16T14:10:23;3.28;;;2.00;;
22298;SDS011;11317;51.072;17.036;2023-04-16T14:12:49;4.10;;;2.00;;
22298;SDS011;11317;51.072;17.036;2023-04-16T14:15:15;3.63;;;2.47;;
22298;SDS011;11317;51.072;17.036;2023-04-16T14:17:42;3.10;;;2.38;;
22298;SDS011;11317;51.072;17.036;2023-04-16T14:20:09;3.80;;;2.40;;
22298;SDS011;11317;51.072;17.036;2023-04-16T14:22:36;5.53;;;2.65;;
22298;SDS011;11317;51.072;17.036;2023-04-16T14:25:03;4.35;;;2.42;;
22298;SDS011;11317;51.072;17.036;2023-04-16T14:27:29;4.32;;;2.80;;
22298;SDS011;11317;51.072;17.036;2023-04-16T14:29:55;5.32;;;2.95;;
22298;SDS011;11317;51.072;17.036;2023-04-16T14:32:22;3.88;;;2.60;;
22298;SDS011;11317;51.072;17.036;2023-04-16T14:34:48;3.80;;;2.45;;